Time;durP1;ratioP1;P1;durP2;ratioP2;P2;SDS_P1;SDS_P2;PMS_P1;PMS_P2;Temp;Humidity;BMP_temperature;BMP_pressure;BME280_temperature;BME280_humidity;BME280_pressure;Samples;Min_cycle;Max_cycle;Signal;HPM_P1;HPM_P2
2024/01/17 00:01:14;;;;;;;8.88;3.78;;;1.20;99.90;;;;;;6148478;23;20380;-96
2024/01/17 00:03:41;;;;;;;6.50;3.45;;;1.40;99.90;;;;;;6148539;23;20009;-96
2024/01/17 00:06:08;;;;;;;8.95;4.40;;;-0.40;99.90;;;;;;6148648;23;20013;-96
2024/01/17 00:08:35;;;;;;;11.82;3.88;;;0.50;99.90;;;;;;6149109;23;20010;-96
2024/01/17 00:11:01;;;;;;;8.90;4.10;;;-0.40;99.90;;;;;;6150397;23;20018;-96
2024/01/17 00:13:28;;;;;;;10.55;3.90;;;0.90;99.90;;;;;;6150019;23;20348;-96
2024/01/17 00:15:55;;;;;;;7.07;3.78;;;1.00;99.90;;;;;;6150326;23;20018;-96
2024/01/17 00:18:21;;;;;;;8.68;3.80;;;0.60;99.90;;;;;;6150210;23;20344;-96
2024/01/17 00:20:48;;;;;;;10.02;3.88;;;-0.40;99.90;;;;;;6150283;23;20013;-96
2024/01/17 00:23:14;;;;;;;7.47;3.55;;;1.00;99.90;;;;;;6150697;23;20009;-96
2024/01/17 00:25:41;;;;;;;8.52;3.42;;;0.90;99.90;;;;;;6150337;23;20016;-96
2024/01/17 00:28:08;;;;;;;7.43;3.60;;;-0.30;99.90;;;;;;6150196;23;20013;-96
2024/01/17 00:30:35;;;;;;;7.82;3.50;;;-0.60;99.90;;;;;;6149957;23;20020;-96
2024/01/17 00:33:01;;;;;;;7.63;3.45;;;0.50;99.90;;;;;;6150281;23;20020;-95
2024/01/17 00:35:28;;;;;;;6.13;3.13;;;-0.20;99.90;;;;;;6150030;23;20017;-96
2024/01/17 00:37:55;;;;;;;7.75;3.17;;;-0.20;99.90;;;;;;6149899;23;20024;-96
2024/01/17 00:40:22;;;;;;;9.50;3.53;;;0.60;99.90;;;;;;6150187;23;20014;-96
2024/01/17 00:42:49;;;;;;;9.95;3.42;;;0.10;99.90;;;;;;6149497;23;20014;-96
2024/01/17 00:45:15;;;;;;;7.03;3.15;;;1.10;99.90;;;;;;6149864;23;20475;-96
2024/01/17 00:47:42;;;;;;;10.52;3.40;;;1.00;99.90;;;;;;6150648;23;20009;-96
2024/01/17 00:50:09;;;;;;;7.78;3.20;;;0.80;99.90;;;;;;6149810;23;20048;-96
2024/01/17 00:52:36;;;;;;;10.27;3.67;;;-0.50;99.90;;;;;;6150037;23;20022;-96
2024/01/17 00:55:03;;;;;;;7.85;3.33;;;0.10;99.90;;;;;;6150368;23;20025;-96
2024/01/17 00:57:29;;;;;;;7.22;3.08;;;-0.50;99.90;;;;;;6149997;23;20021;-96
2024/01/17 00:59:58;;;;;;;8.18;3.90;;;0.20;99.90;;;;;;6149790;23;20013;-96
2024/01/17 01:02:25;;;;;;;9.07;3.60;;;-0.50;99.90;;;;;;6149284;23;20017;-96
2024/01/17 01:04:51;;;;;;;10.98;3.83;;;-0.80;99.90;;;;;;6150017;23;20441;-96
2024/01/17 01:07:18;;;;;;;9.00;3.58;;;0.60;99.90;;;;;;6149592;23;20013;-96
2024/01/17 01:09:45;;;;;;;7.43;3.50;;;0.90;99.90;;;;;;6149964;23;20010;-96
2024/01/17 01:12:12;;;;;;;7.40;3.90;;;-0.50;99.90;;;;;;6149346;23;20072;-96
2024/01/17 01:14:38;;;;;;;8.90;3.88;;;-0.60;99.90;;;;;;6149685;23;20076;-96
2024/01/17 01:17:05;;;;;;;11.07;4.00;;;0.80;99.90;;;;;;6149747;23;20020;-96
2024/01/17 01:19:32;;;;;;;11.20;4.50;;;0.40;99.90;;;;;;6149809;23;20013;-96
2024/01/17 01:21:58;;;;;;;8.20;3.92;;;-0.80;99.90;;;;;;6149484;23;20013;-96
2024/01/17 01:24:25;;;;;;;10.82;4.20;;;-0.80;99.90;;;;;;6149314;23;20441;-96
2024/01/17 01:26:52;;;;;;;11.45;4.00;;;0.70;99.90;;;;;;6149678;23;20016;-96
2024/01/17 01:29:18;;;;;;;9.10;3.85;;;0.00;99.90;;;;;;6149474;23;20014;-96
2024/01/17 01:31:45;;;;;;;8.82;4.57;;;-0.90;99.90;;;;;;6150058;23;20052;-96
2024/01/17 01:34:12;;;;;;;9.85;4.68;;;-0.70;99.90;;;;;;6149891;23;20024;-96
2024/01/17 01:36:38;;;;;;;12.13;4.38;;;0.80;99.90;;;;;;6149229;23;20013;-96
2024/01/17 01:39:05;;;;;;;10.95;4.90;;;-0.30;99.90;;;;;;6149833;23;20018;-96
2024/01/17 01:41:31;;;;;;;13.40;4.50;;;-0.70;99.90;;;;;;6149329;23;20096;-96
2024/01/17 01:43:59;;;;;;;10.48;5.13;;;0.60;99.90;;;;;;6149898;23;20013;-96
2024/01/17 01:46:29;;;;;;;10.60;5.55;;;0.90;99.90;;;;;;6149286;23;20083;-96
2024/01/17 01:48:57;;;;;;;10.75;5.07;;;-0.90;99.90;;;;;;6149517;23;20504;-96
2024/01/17 01:51:26;;;;;;;13.10;5.60;;;-0.50;99.90;;;;;;6149596;23;20018;-96
2024/01/17 01:53:56;;;;;;;10.55;5.57;;;0.10;99.90;;;;;;6149513;23;20017;-96
2024/01/17 01:56:26;;;;;;;16.00;6.20;;;-0.60;99.90;;;;;;6149387;23;20013;-96
2024/01/17 01:58:54;;;;;;;12.20;5.95;;;0.20;99.90;;;;;;6149490;23;20013;-96
2024/01/17 02:01:23;;;;;;;11.25;5.43;;;0.40;99.90;;;;;;6149498;23;20018;-96
2024/01/17 02:03:51;;;;;;;13.68;5.68;;;-0.60;99.90;;;;;;6149942;23;20013;-96
2024/01/17 02:06:20;;;;;;;12.75;5.95;;;0.80;99.90;;;;;;6149740;23;20114;-96
2024/01/17 02:08:50;;;;;;;12.77;5.57;;;0.80;99.90;;;;;;6149124;23;20020;-96
2024/01/17 02:11:18;;;;;;;14.75;6.13;;;0.70;99.90;;;;;;6149331;23;20523;-96
2024/01/17 02:13:45;;;;;;;17.58;5.85;;;0.80;99.90;;;;;;6149310;23;20021;-96
2024/01/17 02:16:13;;;;;;;14.63;5.97;;;0.70;99.90;;;;;;6149458;23;20096;-96
2024/01/17 02:18:40;;;;;;;12.50;5.70;;;-0.70;99.90;;;;;;6150058;23;20017;-96
2024/01/17 02:21:07;;;;;;;12.07;5.93;;;-0.80;99.90;;;;;;6149361;23;20028;-96
2024/01/17 02:23:34;;;;;;;12.70;5.78;;;0.30;99.90;;;;;;6149333;23;20021;-96
2024/01/17 02:26:01;;;;;;;13.60;5.97;;;-0.80;99.90;;;;;;6149464;23;20013;-96
2024/01/17 02:28:29;;;;;;;13.48;6.43;;;-0.70;99.90;;;;;;6150141;23;20020;-96
2024/01/17 02:30:59;;;;;;;15.93;6.35;;;0.90;99.90;;;;;;6150012;23;20018;-96
2024/01/17 02:33:26;;;;;;;14.02;6.63;;;0.80;99.90;;;;;;6149229;23;20036;-96
2024/01/17 02:35:53;;;;;;;12.70;6.35;;;1.00;99.90;;;;;;6149519;23;20016;-96
2024/01/17 02:38:20;;;;;;;17.83;6.75;;;-0.70;99.90;;;;;;6150177;23;20014;-96
2024/01/17 02:40:47;;;;;;;11.98;6.15;;;-0.60;99.90;;;;;;6150308;23;20020;-96
2024/01/17 02:43:14;;;;;;;16.85;6.93;;;-0.40;99.90;;;;;;6150341;23;20034;-96
2024/01/17 02:45:40;;;;;;;15.48;7.30;;;0.30;99.90;;;;;;6150532;23;20440;-96
2024/01/17 02:48:07;;;;;;;17.48;7.22;;;-0.60;99.90;;;;;;6149251;23;20432;-95
2024/01/17 02:50:34;;;;;;;13.82;6.95;;;-0.40;99.90;;;;;;6149055;23;20013;-94
2024/01/17 02:53:01;;;;;;;14.50;6.90;;;0.60;99.90;;;;;;6148852;23;20344;-95
2024/01/17 02:55:27;;;;;;;15.45;7.55;;;0.90;99.90;;;;;;6148740;23;20021;-95
2024/01/17 02:57:54;;;;;;;16.17;7.28;;;-0.70;99.90;;;;;;6149059;23;20014;-94
2024/01/17 03:00:21;;;;;;;17.95;8.38;;;0.50;99.90;;;;;;6149051;23;20822;-95
2024/01/17 03:02:49;;;;;;;16.17;7.20;;;-1.70;99.90;;;;;;6148692;23;20013;-94
2024/01/17 03:05:16;;;;;;;20.42;7.90;;;-0.50;99.90;;;;;;6148734;23;20022;-95
2024/01/17 03:07:43;;;;;;;15.48;7.75;;;-0.60;99.90;;;;;;6148379;23;20065;-94
2024/01/17 03:10:12;;;;;;;12.93;7.38;;;1.00;99.90;;;;;;6148810;23;20029;-94
2024/01/17 03:12:39;;;;;;;16.42;8.07;;;-0.60;99.90;;;;;;6148516;23;20021;-95
2024/01/17 03:15:10;;;;;;;16.02;8.02;;;0.00;99.90;;;;;;6149230;23;20017;-95
2024/01/17 03:17:37;;;;;;;16.30;7.90;;;-0.60;99.90;;;;;;6149522;23;20033;-94
2024/01/17 03:20:05;;;;;;;15.75;8.05;;;-0.10;99.90;;;;;;6149016;23;20014;-93
2024/01/17 03:22:32;;;;;;;15.73;7.95;;;-0.60;99.90;;;;;;6148718;23;20453;-95
2024/01/17 03:25:00;;;;;;;15.85;8.23;;;0.60;99.90;;;;;;6148732;23;20016;-95
2024/01/17 03:27:27;;;;;;;14.98;8.10;;;0.60;99.90;;;;;;6149166;23;20014;-95
2024/01/17 03:29:53;;;;;;;19.60;7.95;;;0.40;99.90;;;;;;6149006;23;20070;-95
2024/01/17 03:32:20;;;;;;;16.23;8.13;;;-0.60;99.90;;;;;;6148976;23;20017;-95
2024/01/17 03:34:47;;;;;;;16.45;7.93;;;-0.20;99.90;;;;;;6148953;23;20065;-94
2024/01/17 03:37:14;;;;;;;16.48;8.82;;;-0.30;99.90;;;;;;6148892;23;20097;-95
2024/01/17 03:39:47;;;;;;;16.23;8.40;;;1.10;99.90;;;;;;6149261;23;20072;-96
2024/01/17 03:42:15;;;;;;;20.55;9.13;;;1.00;99.90;;;;;;6148950;23;20045;-96
2024/01/17 03:44:43;;;;;;;16.73;8.77;;;-0.70;99.90;;;;;;6150427;23;20013;-95
2024/01/17 03:47:11;;;;;;;16.27;8.52;;;0.70;99.90;;;;;;6150289;23;20009;-95
2024/01/17 03:49:38;;;;;;;16.55;8.20;;;0.20;99.90;;;;;;6150991;23;20024;-95
2024/01/17 03:52:07;;;;;;;17.30;8.57;;;0.40;99.90;;;;;;6150553;23;20013;-95
2024/01/17 03:54:36;;;;;;;20.73;8.68;;;0.80;99.90;;;;;;6150883;23;20064;-95
2024/01/17 03:57:04;;;;;;;16.65;8.18;;;0.20;99.90;;;;;;6150686;23;20041;-95
2024/01/17 03:59:31;;;;;;;17.45;8.45;;;-0.80;99.90;;;;;;6150109;23;20013;-95
2024/01/17 04:01:58;;;;;;;26.27;8.80;;;0.00;99.90;;;;;;6150130;23;20716;-95
2024/01/17 04:04:24;;;;;;;15.35;8.48;;;-0.40;99.90;;;;;;6150810;23;20332;-96
2024/01/17 04:06:51;;;;;;;15.60;7.97;;;0.80;99.90;;;;;;6150722;23;20020;-95
2024/01/17 04:09:19;;;;;;;17.55;8.30;;;-0.10;99.90;;;;;;6150637;23;20013;-94
2024/01/17 04:11:45;;;;;;;13.57;7.88;;;-0.70;99.90;;;;;;6150181;23;20013;-95
2024/01/17 04:14:12;;;;;;;17.30;8.90;;;-1.50;99.90;;;;;;6145135;23;20018;-95
2024/01/17 04:16:42;;;;;;;17.58;8.52;;;0.80;99.90;;;;;;6145328;23;20097;-94
2024/01/17 04:19:09;;;;;;;18.70;8.95;;;-1.90;99.90;;;;;;6145134;23;20072;-95
2024/01/17 04:21:36;;;;;;;15.15;8.43;;;-0.80;99.90;;;;;;6145418;23;20468;-94
2024/01/17 04:24:03;;;;;;;15.63;8.15;;;0.70;99.90;;;;;;6145126;23;20010;-95
2024/01/17 04:26:30;;;;;;;20.98;7.90;;;-0.80;99.90;;;;;;6145677;23;20467;-95
2024/01/17 04:28:57;;;;;;;15.68;7.57;;;0.30;99.90;;;;;;6145554;23;20041;-94
2024/01/17 04:31:25;;;;;;;17.77;8.07;;;-0.80;99.90;;;;;;6145457;23;20049;-93
2024/01/17 04:33:52;;;;;;;16.83;9.18;;;0.70;99.90;;;;;;6145088;23;20050;-94
2024/01/17 04:36:20;;;;;;;16.00;8.75;;;-0.80;99.90;;;;;;6145299;23;20040;-95
2024/01/17 04:38:47;;;;;;;21.02;9.07;;;0.70;99.90;;;;;;6145602;23;20018;-95
2024/01/17 04:41:15;;;;;;;18.63;8.10;;;0.50;99.90;;;;;;6145869;23;20069;-95
2024/01/17 04:43:44;;;;;;;14.80;7.10;;;-0.90;99.90;;;;;;6146163;23;20101;-95
2024/01/17 04:46:12;;;;;;;15.68;7.82;;;0.30;99.90;;;;;;6145807;23;20010;-95
2024/01/17 04:48:42;;;;;;;17.48;8.35;;;-0.50;99.90;;;;;;6145454;23;20010;-94
2024/01/17 04:51:10;;;;;;;15.40;7.80;;;0.40;99.90;;;;;;6146534;23;20093;-95
2024/01/17 04:53:38;;;;;;;15.55;7.45;;;0.50;99.90;;;;;;6146655;23;20029;-95
2024/01/17 04:56:05;;;;;;;18.10;8.02;;;-1.10;99.90;;;;;;6145782;23;20014;-94
2024/01/17 04:58:33;;;;;;;16.67;8.52;;;-0.90;99.90;;;;;;6145814;23;20018;-95
2024/01/17 05:00:59;;;;;;;14.05;7.70;;;0.50;99.90;;;;;;6145685;23;20021;-94
2024/01/17 05:03:29;;;;;;;19.67;8.63;;;0.40;99.90;;;;;;6145557;23;20823;-94
2024/01/17 05:05:56;;;;;;;15.02;8.07;;;-0.90;99.90;;;;;;6145813;23;20252;-95
2024/01/17 05:08:23;;;;;;;20.60;7.82;;;0.50;99.90;;;;;;6145340;23;20010;-94
2024/01/17 05:10:50;;;;;;;16.35;7.68;;;-0.90;99.90;;;;;;6145580;23;20036;-95
2024/01/17 05:13:16;;;;;;;14.60;7.47;;;0.00;99.90;;;;;;6145220;23;20396;-94
2024/01/17 05:15:43;;;;;;;17.33;7.55;;;0.40;99.90;;;;;;6145637;23;20017;-95
2024/01/17 05:18:10;;;;;;;14.98;7.38;;;0.30;99.90;;;;;;6146075;23;20010;-94
2024/01/17 05:20:37;;;;;;;17.05;7.63;;;0.50;99.90;;;;;;6146189;23;20014;-96
2024/01/17 05:23:04;;;;;;;17.25;8.23;;;-0.70;99.90;;;;;;6146166;23;20045;-95
2024/01/17 05:25:32;;;;;;;12.88;6.95;;;0.30;99.90;;;;;;6145734;23;20090;-95
2024/01/17 05:27:59;;;;;;;14.95;7.35;;;0.60;99.90;;;;;;6145856;23;20014;-94
2024/01/17 05:30:26;;;;;;;13.77;7.30;;;0.60;99.90;;;;;;6146167;23;20018;-95
2024/01/17 05:32:53;;;;;;;13.85;7.40;;;0.30;99.90;;;;;;6145639;23;20021;-94
2024/01/17 05:35:23;;;;;;;15.85;7.07;;;-0.80;99.90;;;;;;6145550;23;20047;-94
2024/01/17 05:37:51;;;;;;;13.52;6.65;;;0.40;99.90;;;;;;6146256;23;20018;-95
2024/01/17 05:40:17;;;;;;;13.90;7.10;;;0.50;99.90;;;;;;6147390;23;20014;-95
2024/01/17 05:42:45;;;;;;;13.43;7.45;;;-1.00;99.90;;;;;;6147106;23;20014;-95
2024/01/17 05:45:12;;;;;;;12.57;6.88;;;-1.00;99.90;;;;;;6147259;23;20369;-95
2024/01/17 05:47:39;;;;;;;15.27;6.85;;;-0.90;99.90;;;;;;6146273;23;20009;-96
2024/01/17 05:50:09;;;;;;;13.18;7.00;;;0.40;99.90;;;;;;6146330;23;20049;-96
2024/01/17 05:52:39;;;;;;;14.10;6.70;;;-1.80;99.90;;;;;;6146170;23;20024;-96
2024/01/17 05:55:09;;;;;;;16.27;8.15;;;0.40;99.90;;;;;;6145638;23;20436;-96
2024/01/17 05:57:37;;;;;;;15.35;7.30;;;0.30;99.90;;;;;;6145411;23;20068;-96
2024/01/17 06:00:08;;;;;;;15.57;7.88;;;-0.20;99.90;;;;;;6146709;23;20108;-95
2024/01/17 06:02:39;;;;;;;15.68;7.10;;;-1.00;99.90;;;;;;6145444;23;20097;-95
2024/01/17 06:05:09;;;;;;;12.18;6.32;;;-1.00;99.90;;;;;;6146009;23;20449;-95
2024/01/17 06:07:38;;;;;;;13.60;6.15;;;-0.90;99.90;;;;;;6144924;23;20025;-95
2024/01/17 06:10:06;;;;;;;14.05;6.35;;;-0.60;99.90;;;;;;6145167;23;20013;-95
2024/01/17 06:12:32;;;;;;;16.90;7.28;;;-0.90;99.90;;;;;;6144760;23;20041;-94
2024/01/17 06:14:59;;;;;;;13.45;7.35;;;-0.90;99.90;;;;;;6145326;23;20018;-95
2024/01/17 06:17:26;;;;;;;13.85;6.72;;;0.10;99.90;;;;;;6146317;23;20145;-95
2024/01/17 06:19:53;;;;;;;17.63;6.43;;;-1.00;99.90;;;;;;6146120;23;20014;-94
2024/01/17 06:22:20;;;;;;;12.32;7.10;;;0.40;99.90;;;;;;6146075;23;20020;-96
2024/01/17 06:24:47;;;;;;;12.10;6.18;;;0.40;99.90;;;;;;6145988;23;20017;-96
2024/01/17 06:27:14;;;;;;;14.90;7.13;;;0.80;99.90;;;;;;6146237;23;20021;-95
2024/01/17 06:29:45;;;;;;;13.45;6.53;;;-1.10;99.90;;;;;;6146025;23;20092;-95
2024/01/17 06:32:13;;;;;;;13.27;6.28;;;-0.40;99.90;;;;;;6145585;23;20025;-96
2024/01/17 06:34:40;;;;;;;15.05;6.80;;;-1.10;99.90;;;;;;6144884;23;20022;-91
2024/01/17 06:37:07;;;;;;;12.45;6.53;;;0.00;99.90;;;;;;6143746;23;20010;-91
2024/01/17 06:39:36;;;;;;;13.23;6.75;;;-0.90;99.90;;;;;;6143941;23;20017;-91
2024/01/17 06:42:03;;;;;;;10.60;6.32;;;0.40;99.90;;;;;;6143582;23;20014;-91
2024/01/17 06:44:30;;;;;;;18.48;7.57;;;-1.10;99.90;;;;;;6144055;23;20098;-91
2024/01/17 06:46:57;;;;;;;10.70;6.15;;;-0.20;99.90;;;;;;6147636;23;20068;-92
2024/01/17 06:49:25;;;;;;;13.93;6.55;;;-1.20;99.90;;;;;;6147838;23;20014;-92
2024/01/17 06:51:52;;;;;;;12.43;6.15;;;0.20;99.90;;;;;;6143883;23;20029;-92
2024/01/17 06:54:19;;;;;;;15.57;6.53;;;0.00;99.90;;;;;;6143188;23;20453;-92
2024/01/17 06:56:45;;;;;;;15.43;7.32;;;-0.20;99.90;;;;;;6143384;23;20109;-92
2024/01/17 06:59:12;;;;;;;12.70;6.38;;;-1.00;99.90;;;;;;6143382;23;20052;-92
2024/01/17 07:01:40;;;;;;;13.50;7.07;;;0.10;99.90;;;;;;6143367;23;20076;-92
2024/01/17 07:04:07;;;;;;;12.95;6.18;;;0.20;99.90;;;;;;6143134;23;20025;-92
2024/01/17 07:06:34;;;;;;;15.02;6.68;;;-0.30;99.90;;;;;;6143114;23;20441;-92
2024/01/17 07:09:01;;;;;;;16.55;6.63;;;0.10;99.90;;;;;;6143107;23;20014;-92
2024/01/17 07:11:28;;;;;;;12.98;6.60;;;-1.30;99.90;;;;;;6143478;23;20029;-92
2024/01/17 07:13:54;;;;;;;10.52;6.13;;;-0.50;99.90;;;;;;6143486;23;20018;-92
2024/01/17 07:16:22;;;;;;;13.55;6.40;;;0.00;99.90;;;;;;6143764;23;20088;-92
2024/01/17 07:18:49;;;;;;;13.23;6.95;;;-1.40;99.90;;;;;;6145015;23;20052;-92
2024/01/17 07:21:16;;;;;;;14.23;7.63;;;-1.50;99.90;;;;;;6145517;23;20022;-92
2024/01/17 07:23:43;;;;;;;15.77;7.63;;;-0.40;99.90;;;;;;6145726;23;20014;-92
2024/01/17 07:26:10;;;;;;;13.77;6.80;;;-0.10;99.90;;;;;;6145226;23;20010;-92
2024/01/17 07:28:37;;;;;;;16.70;8.07;;;-1.80;99.90;;;;;;6144955;23;20468;-92
2024/01/17 07:31:03;;;;;;;19.52;8.70;;;-0.30;99.90;;;;;;6145149;23;20306;-91
2024/01/17 07:33:31;;;;;;;17.45;9.00;;;-1.30;99.90;;;;;;6144911;23;20014;-92
2024/01/17 07:35:58;;;;;;;14.55;8.07;;;-1.60;99.90;;;;;;6145250;23;20014;-92
2024/01/17 07:38:25;;;;;;;19.98;10.90;;;-1.50;99.90;;;;;;6144264;23;20471;-92
2024/01/17 07:40:52;;;;;;;18.80;7.82;;;0.10;99.90;;;;;;6145088;23;20515;-92
2024/01/17 07:43:35;;;;;;;14.15;7.90;;;-0.10;99.90;;;;;;6144800;23;20053;-92
2024/01/17 07:46:01;;;;;;;13.77;7.75;;;-1.90;99.90;;;;;;6145577;23;20045;-93
2024/01/17 07:48:28;;;;;;;14.07;8.38;;;-1.80;99.90;;;;;;6144805;23;20013;-92
2024/01/17 07:50:55;;;;;;;21.88;7.93;;;-0.50;99.90;;;;;;6144349;23;20014;-93
2024/01/17 07:53:22;;;;;;;17.15;7.68;;;-1.70;99.90;;;;;;6145117;23;20013;-93
2024/01/17 07:55:49;;;;;;;16.70;7.65;;;-0.60;99.90;;;;;;6145414;23;20042;-93
2024/01/17 07:58:16;;;;;;;15.45;8.57;;;-1.10;99.90;;;;;;6145080;23;20068;-92
2024/01/17 08:00:43;;;;;;;16.67;7.90;;;-1.70;99.90;;;;;;6144375;23;20052;-91
2024/01/17 08:03:09;;;;;;;15.38;7.38;;;-2.10;99.90;;;;;;6145068;23;20341;-91
2024/01/17 08:05:36;;;;;;;14.18;8.05;;;-1.30;99.90;;;;;;6145555;23;20441;-90
2024/01/17 08:08:03;;;;;;;13.45;7.40;;;-2.20;99.90;;;;;;6144794;23;20042;-90
2024/01/17 08:10:30;;;;;;;15.57;8.23;;;-1.90;99.90;;;;;;6144891;23;20441;-90
2024/01/17 08:12:57;;;;;;;14.95;7.05;;;-2.00;99.90;;;;;;6144906;23;20100;-89
2024/01/17 08:15:23;;;;;;;15.77;7.57;;;-1.60;99.90;;;;;;6145193;23;20073;-90
2024/01/17 08:17:50;;;;;;;15.95;8.35;;;-0.40;99.90;;;;;;6145370;23;20060;-91
2024/01/17 08:20:17;;;;;;;14.65;7.38;;;-2.20;99.90;;;;;;6145273;23;20464;-89
2024/01/17 08:22:43;;;;;;;16.50;7.82;;;-2.10;99.90;;;;;;6145101;23;20014;-89
2024/01/17 08:25:10;;;;;;;14.18;6.97;;;-2.20;99.90;;;;;;6144967;23;20025;-92
2024/01/17 08:27:37;;;;;;;13.35;7.40;;;-0.60;99.90;;;;;;6144871;23;20010;-88
2024/01/17 08:30:04;;;;;;;13.05;7.38;;;-0.60;99.90;;;;;;6144524;23;20021;-90
2024/01/17 08:32:31;;;;;;;16.38;7.65;;;-2.00;99.90;;;;;;6145213;23;20010;-91
2024/01/17 08:34:57;;;;;;;17.58;7.50;;;-2.20;99.90;;;;;;6144588;23;20014;-90
2024/01/17 08:37:35;;;;;;;16.77;7.57;;;-0.50;99.90;;;;;;6145053;23;20020;-91
2024/01/17 08:40:03;;;;;;;17.45;6.85;;;-0.70;99.90;;;;;;6144362;23;20018;-90
2024/01/17 08:42:29;;;;;;;13.95;7.28;;;-1.90;99.90;;;;;;6144621;23;20021;-90
2024/01/17 08:44:56;;;;;;;12.73;6.93;;;-0.40;99.90;;;;;;6144459;23;20014;-90
2024/01/17 08:47:23;;;;;;;15.82;7.47;;;-0.70;99.90;;;;;;6145139;23;20322;-90
2024/01/17 08:49:51;;;;;;;14.85;7.22;;;-0.20;99.90;;;;;;6144731;23;20013;-89
2024/01/17 08:52:17;;;;;;;13.57;6.68;;;-1.90;99.90;;;;;;6144702;23;20018;-90
2024/01/17 08:54:44;;;;;;;15.02;7.47;;;-1.80;99.90;;;;;;6143325;23;20074;-91
2024/01/17 08:57:11;;;;;;;15.02;7.55;;;;;;;;;;6144635;23;20334;-89
2024/01/17 08:59:38;;;;;;;13.93;7.03;;;-1.80;99.90;;;;;;6144025;23;20018;-89
2024/01/17 09:02:05;;;;;;;13.15;6.85;;;-0.20;99.90;;;;;;6143946;23;20018;-89
2024/01/17 09:04:32;;;;;;;12.48;7.13;;;-1.80;99.90;;;;;;6144300;23;20014;-90
2024/01/17 09:06:58;;;;;;;13.73;6.88;;;-1.80;99.90;;;;;;6144200;23;20014;-88
2024/01/17 09:09:25;;;;;;;13.48;6.68;;;-1.20;99.90;;;;;;6144290;23;20032;-91
2024/01/17 09:11:56;;;;;;;13.43;6.80;;;-1.50;99.90;;;;;;6144530;23;20037;-90
2024/01/17 09:14:24;;;;;;;15.70;7.45;;;-0.40;99.90;;;;;;6144770;23;20457;-90
2024/01/17 09:16:51;;;;;;;12.98;7.22;;;-1.80;99.90;;;;;;6144202;23;20021;-91
2024/01/17 09:19:20;;;;;;;11.50;5.93;;;-0.80;99.90;;;;;;6144515;23;20341;-90
2024/01/17 09:21:48;;;;;;;13.95;7.20;;;-0.90;99.90;;;;;;6144298;23;20221;-89
2024/01/17 09:24:14;;;;;;;17.25;7.05;;;-0.80;99.90;;;;;;6144558;23;20093;-90
2024/01/17 09:26:41;;;;;;;12.68;6.85;;;0.00;99.90;;;;;;6144875;23;20045;-90
2024/01/17 09:29:08;;;;;;;14.80;6.95;;;-1.60;99.90;;;;;;6144417;23;20487;-90
2024/01/17 09:31:36;;;;;;;15.60;6.82;;;-2.30;99.90;;;;;;6144564;23;20457;-91
2024/01/17 09:34:02;;;;;;;15.00;7.07;;;0.00;99.90;;;;;;6144289;23;20018;-89
2024/01/17 09:36:29;;;;;;;12.15;6.00;;;-1.60;99.90;;;;;;6143555;23;20340;-88
2024/01/17 09:38:55;;;;;;;13.90;6.65;;;-1.70;99.90;;;;;;6144609;23;20440;-91
2024/01/17 09:41:22;;;;;;;10.73;5.65;;;-1.70;99.90;;;;;;6143602;23;20010;-91
2024/01/17 09:43:49;;;;;;;14.63;6.45;;;-1.40;99.90;;;;;;6144718;23;20010;-91
2024/01/17 09:46:15;;;;;;;17.60;7.00;;;-1.80;99.90;;;;;;6144118;23;20014;-90
2024/01/17 09:48:42;;;;;;;16.65;7.07;;;-0.90;99.90;;;;;;6144088;23;20056;-90
2024/01/17 09:51:16;;;;;;;12.30;6.20;;;-1.20;99.90;;;;;;6143852;23;20014;-89
2024/01/17 09:53:50;;;;;;;14.60;6.78;;;-1.30;99.90;;;;;;6143861;23;20017;-89
2024/01/17 09:56:21;;;;;;;16.15;7.90;;;0.00;99.90;;;;;;6143461;23;20021;-89
2024/01/17 09:58:52;;;;;;;11.35;6.25;;;-1.30;99.90;;;;;;6144029;23;20038;-91
2024/01/17 10:01:21;;;;;;;14.57;6.35;;;-1.40;99.90;;;;;;6143784;23;20021;-89
2024/01/17 10:03:51;;;;;;;11.57;6.45;;;-0.20;99.90;;;;;;6143686;23;20735;-92
2024/01/17 10:06:19;;;;;;;14.18;6.90;;;0.10;99.90;;;;;;6143795;23;20037;-90
2024/01/17 10:08:47;;;;;;;12.70;6.45;;;-1.00;99.90;;;;;;6144024;23;20014;-90
2024/01/17 10:11:14;;;;;;;16.67;6.82;;;-0.90;99.90;;;;;;6143687;23;20013;-90
2024/01/17 10:13:41;;;;;;;13.65;6.57;;;0.10;99.90;;;;;;6143293;23;20014;-91
2024/01/17 10:16:08;;;;;;;15.57;6.70;;;0.10;99.90;;;;;;6143609;23;20097;-90
2024/01/17 10:18:35;;;;;;;11.27;6.68;;;-0.80;99.90;;;;;;6143418;23;20102;-90
2024/01/17 10:21:18;;;;;;;15.43;6.60;;;-1.00;99.90;;;;;;6144124;23;20013;-91
2024/01/17 10:23:44;;;;;;;13.52;6.13;;;0.30;99.90;;;;;;6143091;23;20013;-91
2024/01/17 10:26:11;;;;;;;14.75;6.35;;;-0.50;99.90;;;;;;6144389;23;20014;-89
2024/01/17 10:28:38;;;;;;;12.35;6.22;;;-1.00;99.90;;;;;;6143767;23;20763;-91
2024/01/17 10:31:10;;;;;;;15.00;6.65;;;0.90;99.90;;;;;;6144242;23;20006;-90
2024/01/17 10:33:38;;;;;;;15.88;6.63;;;-0.60;99.90;;;;;;6143448;23;20472;-90
2024/01/17 10:36:05;;;;;;;13.63;6.90;;;-0.10;99.90;;;;;;6143866;23;20006;-91
2024/01/17 10:38:33;;;;;;;16.98;6.65;;;-0.70;99.90;;;;;;6143521;23;20476;-91
2024/01/17 10:41:06;;;;;;;12.30;6.72;;;0.60;99.90;;;;;;6143528;23;20449;-91
2024/01/17 10:43:33;;;;;;;17.63;6.90;;;0.70;99.90;;;;;;6143699;23;20020;-89
2024/01/17 10:46:11;;;;;;;12.30;6.45;;;-0.70;99.90;;;;;;6143831;23;20021;-88
2024/01/17 10:48:37;;;;;;;18.20;7.15;;;-0.60;99.90;;;;;;6143626;23;20341;-90
2024/01/17 10:51:06;;;;;;;12.13;6.53;;;0.80;99.90;;;;;;6144026;23;20023;-90
2024/01/17 10:53:33;;;;;;;13.70;7.20;;;-0.50;99.90;;;;;;6143178;23;20044;-91
2024/01/17 10:56:03;;;;;;;14.35;6.25;;;1.00;99.90;;;;;;6143520;23;20440;-91
2024/01/17 10:58:36;;;;;;;11.40;6.18;;;1.00;99.90;;;;;;6143310;23;20014;-91
2024/01/17 11:01:08;;;;;;;14.15;6.82;;;-0.20;99.90;;;;;;6155543;23;20041;-87
2024/01/17 11:03:39;;;;;;;12.45;6.18;;;1.20;99.90;;;;;;6143913;23;20414;-89
2024/01/17 11:06:07;;;;;;;14.38;6.60;;;1.00;99.90;;;;;;6143484;23;20090;-91
2024/01/17 11:08:36;;;;;;;14.93;6.75;;;-0.20;99.90;;;;;;6143839;23;20017;-89
2024/01/17 11:11:09;;;;;;;13.00;6.30;;;-0.70;99.90;;;;;;6143630;23;20036;-91
2024/01/17 11:13:37;;;;;;;12.25;6.10;;;1.10;99.90;;;;;;6143449;23;20022;-91
2024/01/17 11:16:07;;;;;;;14.38;6.75;;;-0.50;99.90;;;;;;6120185;23;20026;-90
2024/01/17 11:18:36;;;;;;;12.55;6.18;;;-0.10;99.90;;;;;;6143644;23;20006;-90
2024/01/17 11:21:04;;;;;;;13.10;6.37;;;-0.20;99.90;;;;;;6143668;23;20445;-89
2024/01/17 11:24:00;;;;;;;11.40;5.82;;;1.10;99.90;;;;;;6143379;23;20010;-87
2024/01/17 11:27:05;;;;;;;15.73;6.50;;;1.30;99.90;;;;;;6159962;23;20037;-88
2024/01/17 11:29:42;;;;;;;10.73;6.57;;;-0.20;99.90;;;;;;6095311;23;20046;-88
2024/01/17 11:32:40;;;;;;;9.90;5.95;;;-0.20;99.90;;;;;;6143437;23;20088;-88
2024/01/17 11:35:08;;;;;;;12.30;6.20;;;-0.20;99.90;;;;;;6167501;23;20013;-87
2024/01/17 11:37:34;;;;;;;13.80;6.20;;;0.30;99.90;;;;;;6142933;23;20092;-89
2024/01/17 11:40:01;;;;;;;14.45;6.53;;;-0.20;99.90;;;;;;6143066;23;20053;-89
2024/01/17 11:42:28;;;;;;;10.32;5.88;;;0.90;99.90;;;;;;6143136;23;20547;-89
2024/01/17 11:44:55;;;;;;;11.63;5.88;;;1.40;99.90;;;;;;6143365;23;20021;-89
2024/01/17 11:47:22;;;;;;;11.50;5.97;;;1.00;99.90;;;;;;6143263;23;20013;-88
2024/01/17 11:49:49;;;;;;;12.80;5.85;;;-0.30;99.90;;;;;;6143393;23;20075;-88
2024/01/17 11:52:27;;;;;;;13.43;6.78;;;1.50;99.90;;;;;;6143313;23;20014;-88
2024/01/17 11:54:55;;;;;;;14.25;6.32;;;0.00;99.90;;;;;;6143585;23;20449;-88
2024/01/17 11:57:24;;;;;;;18.13;6.38;;;1.40;99.90;;;;;;6143149;23;20093;-88
2024/01/17 12:00:06;;;;;;;11.10;5.63;;;0.90;99.90;;;;;;6143378;23;20025;-88
2024/01/17 12:02:41;;;;;;;10.15;5.40;;;0.00;99.90;;;;;;6142918;23;20058;-88
2024/01/17 12:05:11;;;;;;;12.23;6.47;;;0.10;99.90;;;;;;6143856;23;20068;-88
2024/01/17 12:07:39;;;;;;;12.38;6.65;;;0.10;99.90;;;;;;6145046;23;20016;-88
2024/01/17 12:10:09;;;;;;;13.07;6.15;;;0.10;99.90;;;;;;6145013;23;20014;-89
2024/01/17 12:12:37;;;;;;;14.27;6.13;;;0.00;99.90;;;;;;6145012;23;20295;-89
2024/01/17 12:15:09;;;;;;;14.45;6.28;;;0.00;99.90;;;;;;6145373;23;20010;-89
2024/01/17 12:17:37;;;;;;;14.73;5.55;;;0.00;99.90;;;;;;6169374;23;20010;-89
2024/01/17 12:20:07;;;;;;;10.35;5.35;;;1.50;99.90;;;;;;6144740;23;20013;-90
2024/01/17 12:22:35;;;;;;;9.60;5.32;;;-0.10;99.90;;;;;;6145413;23;20010;-89
2024/01/17 12:25:02;;;;;;;13.18;6.20;;;-0.10;99.90;;;;;;6144355;23;20010;-89
2024/01/17 12:27:31;;;;;;;11.73;6.25;;;-0.20;99.90;;;;;;6144503;23;20013;-89
2024/01/17 12:30:05;;;;;;;12.98;5.57;;;1.00;99.90;;;;;;6146793;23;20006;-90
2024/01/17 12:32:32;;;;;;;11.40;5.57;;;-0.10;99.90;;;;;;6145063;23;20476;-90
2024/01/17 12:35:00;;;;;;;13.30;6.18;;;0.70;99.90;;;;;;6169297;23;20464;-90
2024/01/17 12:37:30;;;;;;;12.00;5.63;;;-0.20;99.90;;;;;;6144802;23;20022;-90
2024/01/17 12:39:57;;;;;;;13.00;5.65;;;1.20;99.90;;;;;;6145215;23;20017;-90
2024/01/17 12:42:23;;;;;;;13.13;5.82;;;0.90;99.90;;;;;;6144692;23;20021;-89
2024/01/17 12:44:50;;;;;;;9.98;5.40;;;-0.20;99.90;;;;;;6145350;23;20045;-90
2024/01/17 12:47:18;;;;;;;12.25;6.40;;;1.40;99.90;;;;;;6169291;23;20018;-90